createdAt,value
2022-12-08T00:01:05.142Z,11.31
2022-12-08T00:03:32.067Z,11.38
2022-12-08T00:06:17.527Z,11.25
2022-12-08T00:09:02.904Z,11.35
2022-12-08T00:11:29.747Z,11.37
2022-12-08T00:13:56.449Z,11.39
2022-12-08T00:16:23.346Z,11.28
2022-12-08T00:18:50.425Z,11.33
2022-12-08T00:21:17.224Z,11.21
2022-12-08T00:23:44.098Z,11.17
2022-12-08T00:26:10.803Z,11.03
2022-12-08T00:28:37.729Z,11.03
2022-12-08T00:31:09.272Z,11.13
2022-12-08T00:33:36.380Z,11.23
2022-12-08T00:36:10.391Z,11.17
2022-12-08T00:38:38.087Z,11.13
2022-12-08T00:41:09.031Z,11.22
2022-12-08T00:43:35.860Z,11.07
2022-12-08T00:46:02.616Z,11.27
2022-12-08T00:48:29.442Z,11.37
2022-12-08T00:50:56.435Z,11.44
2022-12-08T00:53:23.356Z,11.48
2022-12-08T00:55:51.365Z,11.57
2022-12-08T00:58:18.127Z,11.53
2022-12-08T01:00:44.880Z,11.57
2022-12-08T01:03:12.595Z,11.57
2022-12-08T01:05:39.911Z,11.69
2022-12-08T01:08:08.003Z,11.65
2022-12-08T01:10:38.497Z,11.65
2022-12-08T01:13:05.772Z,11.56
2022-12-08T01:15:32.447Z,11.61
2022-12-08T01:17:59.169Z,11.61
2022-12-08T01:20:26.078Z,11.74
2022-12-08T01:22:52.790Z,11.68
2022-12-08T01:25:19.481Z,11.70
2022-12-08T01:27:46.318Z,11.75
2022-12-08T01:30:13.572Z,11.76
2022-12-08T01:32:40.347Z,11.74
2022-12-08T01:35:07.356Z,11.77
2022-12-08T01:37:34.023Z,11.79
2022-12-08T01:40:00.741Z,11.80
2022-12-08T01:42:27.635Z,11.83
2022-12-08T01:45:03.049Z,11.90
2022-12-08T01:47:42.966Z,11.79
2022-12-08T01:50:13.206Z,11.62
2022-12-08T01:52:50.549Z,11.27
2022-12-08T01:55:23.119Z,11.25
2022-12-08T01:57:53.692Z,11.21
2022-12-08T02:00:21.841Z,11.24
2022-12-08T02:02:59.675Z,11.11
2022-12-08T02:05:33.872Z,11.03
2022-12-08T02:08:06.967Z,11.09
2022-12-08T02:10:37.257Z,11.10
2022-12-08T02:13:04.719Z,10.91
2022-12-08T02:16:10.420Z,10.90
2022-12-08T02:19:30.275Z,10.94
2022-12-08T02:22:15.082Z,11.01
2022-12-08T02:25:10.130Z,10.99
2022-12-08T02:27:58.721Z,11.07
2022-12-08T02:30:45.758Z,11.14
2022-12-08T02:33:50.125Z,11.09
2022-12-08T02:36:26.304Z,11.10
2022-12-08T02:39:25.483Z,11.29
2022-12-08T02:42:19.286Z,11.33
2022-12-08T02:44:57.621Z,11.38
2022-12-08T02:47:26.522Z,11.32
2022-12-08T02:49:55.849Z,11.31
2022-12-08T02:52:23.871Z,11.35
2022-12-08T02:54:55.205Z,11.47
2022-12-08T02:57:58.919Z,11.36
2022-12-08T03:00:29.936Z,11.48
2022-12-08T03:02:59.512Z,11.46
2022-12-08T03:05:32.186Z,11.48
2022-12-08T03:08:29.161Z,11.59
2022-12-08T03:11:05.012Z,11.69
2022-12-08T03:13:53.207Z,11.72
2022-12-08T03:16:25.688Z,11.78
2022-12-08T03:19:21.077Z,11.78
2022-12-08T03:21:52.651Z,11.78
2022-12-08T03:24:22.171Z,11.80
2022-12-08T03:26:57.846Z,11.90
2022-12-08T03:29:25.101Z,11.99
2022-12-08T03:31:57.744Z,11.88
2022-12-08T03:34:28.674Z,11.93
2022-12-08T03:36:55.689Z,11.92
2022-12-08T03:39:22.406Z,11.98
2022-12-08T03:41:49.211Z,11.98
2022-12-08T03:44:15.914Z,12.00
2022-12-08T03:46:42.610Z,12.02
2022-12-08T03:49:09.388Z,12.04
2022-12-08T03:51:36.384Z,12.10
2022-12-08T03:54:03.852Z,12.12
2022-12-08T03:56:34.084Z,12.15
2022-12-08T03:59:01.133Z,12.03
2022-12-08T04:01:28.393Z,12.17
2022-12-08T04:03:55.224Z,12.19
2022-12-08T04:06:22.637Z,12.25
2022-12-08T04:08:50.386Z,12.27
2022-12-08T04:11:17.987Z,12.35
2022-12-08T04:13:45.563Z,12.35
2022-12-08T04:16:25.357Z,12.46
2022-12-08T04:18:52.709Z,12.52
2022-12-08T04:21:19.749Z,12.41
2022-12-08T04:23:47.316Z,12.59
2022-12-08T04:26:14.608Z,12.52
2022-12-08T04:28:41.344Z,12.57
2022-12-08T04:31:08.182Z,12.58
2022-12-08T04:33:35.475Z,12.68
2022-12-08T04:36:03.564Z,12.74
2022-12-08T04:38:30.604Z,12.75
2022-12-08T04:40:57.501Z,12.76
2022-12-08T04:43:24.191Z,12.73
2022-12-08T04:45:50.986Z,12.74
2022-12-08T04:48:17.873Z,12.68
2022-12-08T04:50:45.896Z,12.71
2022-12-08T04:53:13.932Z,12.69
2022-12-08T04:55:44.928Z,12.37
2022-12-08T04:58:16.980Z,12.01
2022-12-08T05:00:44.524Z,11.83
2022-12-08T05:03:11.738Z,11.86
2022-12-08T05:05:38.585Z,11.88
2022-12-08T05:08:05.981Z,11.90
2022-12-08T05:10:33.070Z,12.00
2022-12-08T05:13:00.460Z,12.01
2022-12-08T05:15:27.366Z,11.97
2022-12-08T05:17:54.066Z,12.04
2022-12-08T05:20:20.945Z,12.09
2022-12-08T05:22:47.646Z,12.07
2022-12-08T05:25:15.021Z,12.08
2022-12-08T05:27:42.248Z,12.16
2022-12-08T05:30:09.097Z,12.15
2022-12-08T05:32:35.844Z,12.17
2022-12-08T05:35:02.735Z,12.24
2022-12-08T05:37:29.496Z,12.22
2022-12-08T05:39:56.190Z,12.37
2022-12-08T05:42:25.001Z,12.29
2022-12-08T05:44:52.225Z,12.38
2022-12-08T05:47:19.012Z,12.39
2022-12-08T05:49:45.728Z,12.42
2022-12-08T05:52:12.578Z,12.48
2022-12-08T05:54:39.280Z,12.46
2022-12-08T05:57:06.012Z,12.38
2022-12-08T05:59:32.958Z,12.45
2022-12-08T06:01:59.755Z,12.53
2022-12-08T06:04:26.532Z,12.53
2022-12-08T06:06:53.328Z,12.52
2022-12-08T06:09:20.155Z,12.57
2022-12-08T06:11:47.434Z,12.60
2022-12-08T06:14:14.413Z,12.62
2022-12-08T06:16:41.538Z,12.60
2022-12-08T06:19:08.553Z,12.66
2022-12-08T06:21:35.553Z,12.63
2022-12-08T06:24:02.251Z,12.68
2022-12-08T06:26:29.096Z,12.70
2022-12-08T06:28:55.867Z,12.64
2022-12-08T06:31:24.938Z,12.81
2022-12-08T06:33:53.418Z,12.77
2022-12-08T06:36:22.923Z,12.75
2022-12-08T06:38:49.925Z,12.68
2022-12-08T06:41:17.143Z,12.76
2022-12-08T06:43:44.358Z,12.77
2022-12-08T06:46:15.742Z,12.74
2022-12-08T06:48:43.063Z,12.76
2022-12-08T06:51:14.993Z,12.60
2022-12-08T06:53:43.040Z,12.45
2022-12-08T06:56:10.914Z,12.36
2022-12-08T06:58:38.157Z,12.33
2022-12-08T07:01:09.448Z,12.32
2022-12-08T07:03:37.472Z,12.24
2022-12-08T07:06:04.995Z,12.31
2022-12-08T07:08:33.366Z,12.27
2022-12-08T07:11:00.216Z,12.36
2022-12-08T07:13:26.927Z,12.35
2022-12-08T07:15:53.879Z,12.43
2022-12-08T07:18:20.800Z,12.53
2022-12-08T07:20:47.515Z,12.57
2022-12-08T07:23:15.016Z,12.64
2022-12-08T07:25:41.717Z,12.72
2022-12-08T07:28:12.503Z,12.76
2022-12-08T07:30:39.964Z,12.70
2022-12-08T07:33:06.765Z,12.72
2022-12-08T07:35:35.051Z,12.76
2022-12-08T07:38:02.616Z,12.80
2022-12-08T07:40:29.485Z,12.89
2022-12-08T07:42:56.223Z,12.91
2022-12-08T07:45:28.307Z,12.87
2022-12-08T07:47:58.079Z,12.96
2022-12-08T07:50:24.956Z,12.98
2022-12-08T07:52:51.645Z,12.97
2022-12-08T07:55:18.318Z,13.00
2022-12-08T07:57:45.073Z,13.00
2022-12-08T08:00:12.428Z,12.99
2022-12-08T08:02:39.917Z,12.95
2022-12-08T08:05:07.370Z,12.90
2022-12-08T08:07:34.587Z,12.89
2022-12-08T08:10:01.390Z,12.63
2022-12-08T08:12:32.589Z,12.85
2022-12-08T08:15:04.857Z,12.95
2022-12-08T08:17:32.497Z,12.95
2022-12-08T08:20:00.627Z,13.00
2022-12-08T08:22:27.775Z,13.00
2022-12-08T08:24:54.815Z,12.94
2022-12-08T08:27:21.544Z,13.09
2022-12-08T08:29:48.248Z,13.07
2022-12-08T08:32:15.092Z,13.08
2022-12-08T08:34:41.824Z,13.09
2022-12-08T08:37:08.554Z,13.07
2022-12-08T08:39:36.201Z,13.07
2022-12-08T08:42:03.103Z,13.16
2022-12-08T08:44:29.899Z,13.08
2022-12-08T08:46:56.739Z,13.21
2022-12-08T08:49:23.469Z,13.14
2022-12-08T08:51:50.406Z,13.38
2022-12-08T08:54:17.218Z,13.47
2022-12-08T08:56:44.002Z,13.74
2022-12-08T08:59:11.237Z,14.16
2022-12-08T09:01:38.275Z,14.54
2022-12-08T09:04:05.146Z,15.00
2022-12-08T09:06:32.387Z,15.43
2022-12-08T09:08:59.401Z,15.52
2022-12-08T09:11:26.300Z,15.28
2022-12-08T09:13:54.889Z,15.06
2022-12-08T09:16:22.820Z,14.81
2022-12-08T09:18:50.105Z,14.65
2022-12-08T09:21:23.227Z,14.46
2022-12-08T09:23:50.944Z,14.43
2022-12-08T09:26:17.646Z,14.38
2022-12-08T09:28:46.810Z,14.30
2022-12-08T09:31:14.529Z,14.24
2022-12-08T09:33:41.655Z,14.22
2022-12-08T09:36:09.081Z,14.20
2022-12-08T09:38:36.635Z,14.23
2022-12-08T09:41:14.492Z,14.20
2022-12-08T09:44:07.414Z,14.30
2022-12-08T09:46:35.835Z,14.27
2022-12-08T09:49:05.128Z,14.28
2022-12-08T09:51:38.330Z,14.30
2022-12-08T09:54:21.736Z,14.29
2022-12-08T09:56:52.270Z,14.37
2022-12-08T09:59:34.575Z,14.39
2022-12-08T10:02:03.733Z,14.48
2022-12-08T10:04:38.741Z,14.48
2022-12-08T10:07:40.761Z,14.49
2022-12-08T10:10:34.128Z,14.56
2022-12-08T10:13:07.375Z,14.54
2022-12-08T10:15:48.398Z,14.60
2022-12-08T10:18:18.564Z,14.65
2022-12-08T10:20:47.516Z,14.48
2022-12-08T10:23:35.144Z,14.64
2022-12-08T10:26:12.442Z,14.60
2022-12-08T10:28:44.661Z,14.48
2022-12-08T10:31:21.186Z,14.05
2022-12-08T10:34:01.116Z,13.73
2022-12-08T10:37:00.772Z,13.47
2022-12-08T10:39:46.988Z,13.11
2022-12-08T10:42:22.118Z,13.30
2022-12-08T10:44:58.130Z,13.37
2022-12-08T10:47:27.531Z,13.46
2022-12-08T10:50:19.590Z,13.46
2022-12-08T10:52:58.220Z,13.54
2022-12-08T10:55:25.168Z,13.69
2022-12-08T10:57:52.150Z,13.78
2022-12-08T11:00:26.590Z,13.86
2022-12-08T11:03:04.549Z,13.93
2022-12-08T11:05:35.436Z,14.03
2022-12-08T11:08:04.413Z,14.26
2022-12-08T11:10:35.720Z,14.12
2022-12-08T11:13:06.513Z,13.97
2022-12-08T11:15:39.655Z,13.97
2022-12-08T11:18:21.018Z,13.98
2022-12-08T11:20:47.858Z,13.98
2022-12-08T11:23:24.362Z,14.18
2022-12-08T11:25:53.050Z,14.27
2022-12-08T11:28:24.444Z,14.33
2022-12-08T11:31:03.937Z,14.41
2022-12-08T11:33:30.657Z,14.38
2022-12-08T11:36:05.691Z,14.44
2022-12-08T11:38:35.469Z,14.45
2022-12-08T11:41:15.872Z,14.41
2022-12-08T11:43:45.987Z,14.53
2022-12-08T11:46:22.282Z,14.48
2022-12-08T11:49:05.927Z,14.51
2022-12-08T11:51:37.901Z,14.42
2022-12-08T11:54:07.217Z,14.31
2022-12-08T11:56:37.419Z,14.28
2022-12-08T11:59:34.362Z,14.22
2022-12-08T12:02:03.221Z,14.29
2022-12-08T12:05:11.144Z,14.30
2022-12-08T12:07:59.191Z,14.28
2022-12-08T12:10:44.347Z,14.26
2022-12-08T12:13:29.044Z,14.23
2022-12-08T12:16:23.528Z,14.17
2022-12-08T12:18:55.628Z,14.08
2022-12-08T12:21:24.698Z,14.08
2022-12-08T12:24:03.854Z,13.96
2022-12-08T12:26:36.599Z,14.01
2022-12-08T12:29:16.220Z,13.98
2022-12-08T12:31:49.095Z,13.93
2022-12-08T12:34:21.194Z,13.78
2022-12-08T12:36:53.319Z,13.65
2022-12-08T12:39:29.881Z,13.47
2022-12-08T12:41:59.858Z,13.31
2022-12-08T12:44:29.649Z,13.16
2022-12-08T12:46:57.922Z,13.12
2022-12-08T12:49:40.014Z,13.08
2022-12-08T12:52:15.520Z,13.15
2022-12-08T12:55:05.977Z,13.18
2022-12-08T12:57:50.701Z,13.12
2022-12-08T13:00:19.892Z,13.07
2022-12-08T13:02:51.211Z,12.86
2022-12-08T13:05:30.657Z,12.63
2022-12-08T13:08:24.294Z,12.51
2022-12-08T13:11:07.007Z,12.48
2022-12-08T13:13:33.818Z,12.49
2022-12-08T13:16:18.433Z,12.53
2022-12-08T13:18:57.815Z,12.47
2022-12-08T13:21:33.476Z,12.51
2022-12-08T13:24:19.867Z,12.54
2022-12-08T13:26:49.304Z,12.59
2022-12-08T13:29:26.286Z,12.60
2022-12-08T13:32:00.340Z,12.66
2022-12-08T13:34:46.042Z,12.64
2022-12-08T13:37:13.674Z,12.70
2022-12-08T13:39:40.485Z,12.72
2022-12-08T13:42:13.555Z,12.73
2022-12-08T13:48:25.577Z,12.73
2022-12-08T13:57:11.447Z,12.69
2022-12-08T13:59:44.409Z,12.85
2022-12-08T14:02:33.309Z,12.79
2022-12-08T14:05:18.630Z,12.90
2022-12-08T14:07:49.271Z,12.98
2022-12-08T14:10:29.454Z,12.97
2022-12-08T14:12:59.402Z,12.81
2022-12-08T14:15:29.150Z,12.95
2022-12-08T14:17:58.858Z,13.02
2022-12-08T14:20:30.935Z,13.02
2022-12-08T14:23:01.847Z,13.05
2022-12-08T14:25:29.791Z,13.04
2022-12-08T14:28:02.350Z,13.09
2022-12-08T14:30:32.432Z,13.10
2022-12-08T14:33:02.256Z,13.09
2022-12-08T14:35:37.455Z,13.13
2022-12-08T14:38:16.955Z,13.14
2022-12-08T14:40:46.479Z,13.11
2022-12-08T14:43:20.932Z,13.11
2022-12-08T14:45:49.381Z,13.17
2022-12-08T14:48:42.854Z,13.12
2022-12-08T14:51:32.336Z,13.13
2022-12-08T14:54:18.952Z,13.04
2022-12-08T14:56:51.937Z,13.15
2022-12-08T14:59:27.207Z,13.15
2022-12-08T15:02:29.318Z,13.15
2022-12-08T15:05:10.636Z,13.12
2022-12-08T15:07:46.160Z,13.16
2022-12-08T15:10:15.873Z,13.20
2022-12-08T15:13:03.970Z,13.18
2022-12-08T15:15:32.817Z,13.24
2022-12-08T15:18:18.517Z,13.27
2022-12-08T15:21:01.288Z,13.28
2022-12-08T15:23:34.297Z,13.23
2022-12-08T15:26:01.054Z,13.22
2022-12-08T15:28:30.224Z,13.21
2022-12-08T15:30:58.517Z,13.05
2022-12-08T15:33:25.664Z,12.97
2022-12-08T15:35:53.170Z,12.95
2022-12-08T15:38:26.773Z,12.94
2022-12-08T15:40:54.528Z,12.92
2022-12-08T15:43:22.062Z,12.92
2022-12-08T15:45:58.421Z,12.90
2022-12-08T15:48:30.278Z,12.92
2022-12-08T15:50:57.515Z,12.91
2022-12-08T15:53:24.317Z,12.94
2022-12-08T15:56:26.565Z,12.95
2022-12-08T15:58:53.426Z,12.96
2022-12-08T16:01:21.355Z,12.99
2022-12-08T16:09:40.442Z,12.99
2022-12-08T16:13:13.318Z,13.03
2022-12-08T16:15:50.010Z,13.08
2022-12-08T16:18:14.022Z,13.19
2022-12-08T16:23:42.126Z,13.25
2022-12-08T16:29:03.142Z,13.25
2022-12-08T16:31:30.039Z,13.22
2022-12-08T16:33:56.865Z,13.30
2022-12-08T16:36:23.580Z,13.30
2022-12-08T16:38:50.474Z,13.26
2022-12-08T16:41:36.486Z,13.31
2022-12-08T16:44:05.442Z,13.31
2022-12-08T16:46:34.905Z,13.26
2022-12-08T16:49:01.787Z,13.25
2022-12-08T16:51:28.588Z,13.31
2022-12-08T16:53:57.126Z,13.40
2022-12-08T16:56:29.014Z,13.36
2022-12-08T16:58:59.264Z,13.44
2022-12-08T17:01:26.142Z,13.42
2022-12-08T17:04:22.492Z,13.07
2022-12-08T17:06:40.350Z,12.68
2022-12-08T17:09:07.304Z,12.63
2022-12-08T17:11:37.644Z,12.61
2022-12-08T17:14:06.070Z,12.59
2022-12-08T17:16:32.880Z,12.55
2022-12-08T17:18:59.792Z,12.47
2022-12-08T17:21:26.493Z,12.48
2022-12-08T17:23:53.177Z,12.40
2022-12-08T17:26:20.192Z,12.43
2022-12-08T17:29:02.264Z,12.41
2022-12-08T17:31:31.482Z,12.35
2022-12-08T17:34:00.468Z,12.27
2022-12-08T17:36:27.408Z,12.18
2022-12-08T17:38:55.091Z,12.13
2022-12-08T17:41:21.863Z,12.13
2022-12-08T17:43:48.576Z,12.07
2022-12-08T17:46:20.173Z,12.05
2022-12-08T17:48:47.352Z,11.99
2022-12-08T17:51:14.362Z,12.02
2022-12-08T17:53:41.578Z,12.02
2022-12-08T17:56:15.734Z,11.99
2022-12-08T17:58:42.641Z,12.06
2022-12-08T18:01:11.102Z,12.09
2022-12-08T18:03:38.943Z,12.12
2022-12-08T18:06:07.720Z,12.21
2022-12-08T18:08:35.258Z,12.22
2022-12-08T18:11:02.501Z,12.31
2022-12-08T18:13:29.439Z,12.38
2022-12-08T18:15:56.128Z,12.37
2022-12-08T18:18:22.851Z,12.42
2022-12-08T18:20:50.663Z,12.44
2022-12-08T18:23:18.200Z,12.45
2022-12-08T18:25:45.131Z,12.48
2022-12-08T18:28:11.996Z,12.53
2022-12-08T18:30:40.516Z,12.51
2022-12-08T18:33:07.523Z,12.49
2022-12-08T18:35:34.635Z,12.49
2022-12-08T18:38:01.370Z,12.52
2022-12-08T18:40:28.653Z,12.53
2022-12-08T18:42:55.505Z,12.50
2022-12-08T18:45:22.853Z,12.48
2022-12-08T18:47:51.356Z,12.44
2022-12-08T18:50:18.563Z,12.48
2022-12-08T18:52:46.630Z,12.30
2022-12-08T18:55:13.980Z,12.53
2022-12-08T18:57:43.282Z,12.41
2022-12-08T19:00:14.257Z,12.54
2022-12-08T19:02:41.965Z,12.54
2022-12-08T19:05:10.642Z,12.50
2022-12-08T19:07:38.161Z,12.47
2022-12-08T19:10:06.196Z,12.49
2022-12-08T19:12:33.293Z,12.43
2022-12-08T19:15:00.087Z,12.44
2022-12-08T19:17:26.891Z,12.45
2022-12-08T19:19:53.749Z,12.45
2022-12-08T19:22:20.622Z,12.48
2022-12-08T19:24:47.330Z,12.47
2022-12-08T19:27:14.248Z,12.37
2022-12-08T19:29:40.958Z,12.31
2022-12-08T19:32:07.668Z,12.28
2022-12-08T19:34:34.524Z,12.15
2022-12-08T19:37:01.224Z,12.08
2022-12-08T19:39:46.499Z,11.96
2022-12-08T19:42:37.478Z,11.94
2022-12-08T19:45:17.502Z,11.92
2022-12-08T19:47:44.449Z,11.98
2022-12-08T19:50:31.672Z,12.09
2022-12-08T19:52:58.932Z,12.14
2022-12-08T19:55:25.998Z,12.21
2022-12-08T19:57:53.878Z,12.31
2022-12-08T20:00:21.610Z,12.28
2022-12-08T20:02:48.677Z,12.18
2022-12-08T20:05:15.734Z,12.17
2022-12-08T20:07:42.892Z,12.19
2022-12-08T20:10:16.388Z,12.13
2022-12-08T20:12:43.237Z,12.04
2022-12-08T20:15:10.457Z,12.05
2022-12-08T20:17:39.291Z,12.04
2022-12-08T20:20:07.908Z,12.11
2022-12-08T20:22:35.181Z,12.12
2022-12-08T20:25:02.884Z,12.08
2022-12-08T20:27:29.755Z,12.13
2022-12-08T20:29:56.646Z,12.08
2022-12-08T20:32:23.356Z,11.98
2022-12-08T20:34:50.163Z,12.08
2022-12-08T20:37:16.988Z,12.11
2022-12-08T20:39:44.024Z,12.09
2022-12-08T20:42:13.963Z,12.13
2022-12-08T20:44:44.651Z,12.14
2022-12-08T20:47:12.924Z,12.16
2022-12-08T20:49:39.753Z,12.11
2022-12-08T20:52:07.375Z,12.17
2022-12-08T20:54:35.266Z,12.12
2022-12-08T20:57:02.392Z,12.04
2022-12-08T20:59:29.559Z,12.13
2022-12-08T21:01:56.456Z,12.16
2022-12-08T21:04:24.123Z,12.22
2022-12-08T21:06:51.221Z,12.23
2022-12-08T21:09:18.696Z,12.23
2022-12-08T21:11:46.020Z,12.24
2022-12-08T21:14:13.163Z,12.23
2022-12-08T21:16:40.154Z,12.15
2022-12-08T21:19:07.253Z,12.17
2022-12-08T21:21:34.277Z,12.14
2022-12-08T21:24:01.460Z,12.26
2022-12-08T21:26:28.866Z,12.23
2022-12-08T21:28:59.058Z,12.27
2022-12-08T21:31:27.260Z,12.23
2022-12-08T21:33:55.318Z,12.27
2022-12-08T21:36:22.535Z,12.23
2022-12-08T21:38:49.532Z,12.17
2022-12-08T21:41:42.573Z,12.15
2022-12-08T21:44:12.703Z,12.02
2022-12-08T21:46:41.057Z,11.99
2022-12-08T21:49:08.697Z,12.06
2022-12-08T21:51:37.953Z,12.03
2022-12-08T21:54:05.100Z,11.99
2022-12-08T21:56:32.319Z,11.96
2022-12-08T21:58:59.278Z,12.00
2022-12-08T22:01:26.155Z,11.99
2022-12-08T22:03:53.300Z,11.94
2022-12-08T22:06:20.373Z,11.99
2022-12-08T22:08:47.301Z,11.93
2022-12-08T22:11:14.300Z,11.98
2022-12-08T22:13:42.434Z,11.91
2022-12-08T22:16:11.574Z,11.93
2022-12-08T22:18:38.903Z,11.91
2022-12-08T22:21:11.650Z,11.92
2022-12-08T22:23:38.811Z,11.89
2022-12-08T22:26:06.675Z,11.94
2022-12-08T22:28:36.170Z,11.91
2022-12-08T22:31:14.820Z,11.86
2022-12-08T22:33:43.492Z,11.87
2022-12-08T22:36:24.705Z,11.90
2022-12-08T22:38:52.860Z,11.93
2022-12-08T22:41:20.635Z,11.95
2022-12-08T22:43:48.316Z,11.97
2022-12-08T22:46:24.429Z,11.94
2022-12-08T22:48:52.766Z,11.97
2022-12-08T22:51:19.995Z,11.96
2022-12-08T22:53:47.411Z,11.97
2022-12-08T22:56:15.746Z,11.95
2022-12-08T22:58:44.501Z,12.01
2022-12-08T23:01:26.244Z,11.99
2022-12-08T23:03:53.516Z,12.07
2022-12-08T23:06:20.520Z,12.05
2022-12-08T23:08:47.609Z,11.95
2022-12-08T23:11:14.916Z,12.07
2022-12-08T23:13:41.737Z,12.09
2022-12-08T23:16:10.378Z,12.11
2022-12-08T23:18:39.989Z,12.07
2022-12-08T23:21:09.268Z,12.08
2022-12-08T23:23:36.700Z,12.12
2022-12-08T23:26:03.649Z,12.07
2022-12-08T23:28:30.548Z,12.14
2022-12-08T23:30:57.382Z,12.13
2022-12-08T23:33:24.308Z,12.11
2022-12-08T23:35:58.094Z,12.10
2022-12-08T23:38:25.540Z,12.12
2022-12-08T23:40:52.761Z,12.13
2022-12-08T23:43:20.112Z,12.13
2022-12-08T23:45:48.609Z,12.21
2022-12-08T23:48:15.654Z,12.23
2022-12-08T23:50:42.481Z,12.11
2022-12-08T23:53:09.250Z,12.17
2022-12-08T23:55:35.960Z,12.22
2022-12-08T23:58:03.007Z,12.20
